sensor_id;sensor_type;location;lat;lon;timestamp;P1;durP1;ratioP1;P2;durP2;ratioP2
77016;SDS011;65949;53.132;17.930;2023-04-15T00:01:04;12.90;;;6.90;;
77016;SDS011;65949;53.132;17.930;2023-04-15T00:03:31;11.00;;;6.60;;
77016;SDS011;65949;53.132;17.930;2023-04-15T00:05:59;12.00;;;6.50;;
77016;SDS011;65949;53.132;17.930;2023-04-15T00:08:26;13.20;;;7.70;;
77016;SDS011;65949;53.132;17.930;2023-04-15T00:10:54;12.10;;;7.00;;
77016;SDS011;65949;53.132;17.930;2023-04-15T00:13:20;14.10;;;7.10;;
77016;SDS011;65949;53.132;17.930;2023-04-15T00:15:47;14.90;;;8.10;;
77016;SDS011;65949;53.132;17.930;2023-04-15T00:18:13;14.60;;;7.60;;
77016;SDS011;65949;53.132;17.930;2023-04-15T00:20:40;14.50;;;6.90;;
77016;SDS011;65949;53.132;17.930;2023-04-15T00:23:07;14.40;;;7.30;;
77016;SDS011;65949;53.132;17.930;2023-04-15T00:25:33;14.10;;;7.50;;
77016;SDS011;65949;53.132;17.930;2023-04-15T00:28:00;13.10;;;7.40;;
77016;SDS011;65949;53.132;17.930;2023-04-15T00:30:27;14.80;;;8.00;;
77016;SDS011;65949;53.132;17.930;2023-04-15T00:32:53;16.70;;;8.40;;
77016;SDS011;65949;53.132;17.930;2023-04-15T00:35:21;16.80;;;7.20;;
77016;SDS011;65949;53.132;17.930;2023-04-15T00:37:48;15.20;;;8.10;;
77016;SDS011;65949;53.132;17.930;2023-04-15T00:40:15;14.10;;;7.70;;
77016;SDS011;65949;53.132;17.930;2023-04-15T00:42:44;19.50;;;9.50;;
77016;SDS011;65949;53.132;17.930;2023-04-15T00:45:10;16.50;;;8.70;;
77016;SDS011;65949;53.132;17.930;2023-04-15T00:47:38;19.30;;;9.20;;
77016;SDS011;65949;53.132;17.930;2023-04-15T00:50:07;17.70;;;8.80;;
77016;SDS011;65949;53.132;17.930;2023-04-15T00:52:34;19.60;;;8.80;;
77016;SDS011;65949;53.132;17.930;2023-04-15T00:55:01;25.00;;;10.90;;
77016;SDS011;65949;53.132;17.930;2023-04-15T00:57:30;16.00;;;8.60;;
77016;SDS011;65949;53.132;17.930;2023-04-15T00:59:57;17.60;;;8.40;;
77016;SDS011;65949;53.132;17.930;2023-04-15T01:02:23;17.40;;;7.90;;
77016;SDS011;65949;53.132;17.930;2023-04-15T01:04:50;20.10;;;9.60;;
77016;SDS011;65949;53.132;17.930;2023-04-15T01:07:17;18.20;;;8.10;;
77016;SDS011;65949;53.132;17.930;2023-04-15T01:09:44;16.10;;;8.00;;
77016;SDS011;65949;53.132;17.930;2023-04-15T01:19:50;19.20;;;8.70;;
77016;SDS011;65949;53.132;17.930;2023-04-15T01:22:17;15.50;;;7.90;;
77016;SDS011;65949;53.132;17.930;2023-04-15T01:27:30;19.20;;;9.00;;
77016;SDS011;65949;53.132;17.930;2023-04-15T01:29:58;12.70;;;6.80;;
77016;SDS011;65949;53.132;17.930;2023-04-15T01:32:25;14.70;;;8.00;;
77016;SDS011;65949;53.132;17.930;2023-04-15T01:34:51;16.50;;;8.50;;
77016;SDS011;65949;53.132;17.930;2023-04-15T01:37:18;15.80;;;7.60;;
77016;SDS011;65949;53.132;17.930;2023-04-15T01:39:45;17.90;;;9.10;;
77016;SDS011;65949;53.132;17.930;2023-04-15T01:42:11;13.60;;;7.40;;
77016;SDS011;65949;53.132;17.930;2023-04-15T01:44:38;14.60;;;7.60;;
77016;SDS011;65949;53.132;17.930;2023-04-15T01:47:04;14.90;;;8.20;;
77016;SDS011;65949;53.132;17.930;2023-04-15T01:49:32;12.20;;;6.00;;
77016;SDS011;65949;53.132;17.930;2023-04-15T01:52:00;15.20;;;7.10;;
77016;SDS011;65949;53.132;17.930;2023-04-15T01:54:26;13.60;;;7.80;;
77016;SDS011;65949;53.132;17.930;2023-04-15T01:56:53;14.00;;;7.90;;
77016;SDS011;65949;53.132;17.930;2023-04-15T01:59:20;14.80;;;7.50;;
77016;SDS011;65949;53.132;17.930;2023-04-15T02:01:47;13.00;;;6.90;;
77016;SDS011;65949;53.132;17.930;2023-04-15T02:04:13;15.80;;;7.80;;
77016;SDS011;65949;53.132;17.930;2023-04-15T02:06:42;12.40;;;6.40;;
77016;SDS011;65949;53.132;17.930;2023-04-15T02:09:09;12.70;;;6.50;;
77016;SDS011;65949;53.132;17.930;2023-04-15T02:11:37;15.50;;;8.50;;
77016;SDS011;65949;53.132;17.930;2023-04-15T02:14:04;12.80;;;6.50;;
77016;SDS011;65949;53.132;17.930;2023-04-15T02:16:31;15.90;;;7.80;;
77016;SDS011;65949;53.132;17.930;2023-04-15T02:18:59;13.80;;;7.40;;
77016;SDS011;65949;53.132;17.930;2023-04-15T02:21:26;14.20;;;8.00;;
77016;SDS011;65949;53.132;17.930;2023-04-15T02:23:53;13.00;;;7.60;;
77016;SDS011;65949;53.132;17.930;2023-04-15T02:26:19;14.90;;;7.10;;
77016;SDS011;65949;53.132;17.930;2023-04-15T02:28:46;14.60;;;7.80;;
77016;SDS011;65949;53.132;17.930;2023-04-15T02:31:14;15.70;;;7.30;;
77016;SDS011;65949;53.132;17.930;2023-04-15T02:33:41;12.80;;;7.60;;
77016;SDS011;65949;53.132;17.930;2023-04-15T02:36:08;15.50;;;7.40;;
77016;SDS011;65949;53.132;17.930;2023-04-15T02:38:36;13.90;;;7.80;;
77016;SDS011;65949;53.132;17.930;2023-04-15T02:41:10;15.10;;;7.30;;
77016;SDS011;65949;53.132;17.930;2023-04-15T02:43:37;13.00;;;7.00;;
77016;SDS011;65949;53.132;17.930;2023-04-15T02:46:05;13.40;;;6.80;;
77016;SDS011;65949;53.132;17.930;2023-04-15T02:48:32;13.70;;;7.80;;
77016;SDS011;65949;53.132;17.930;2023-04-15T02:51:14;14.30;;;6.60;;
77016;SDS011;65949;53.132;17.930;2023-04-15T02:53:42;13.80;;;7.70;;
77016;SDS011;65949;53.132;17.930;2023-04-15T02:56:09;12.90;;;6.90;;
77016;SDS011;65949;53.132;17.930;2023-04-15T02:58:37;12.80;;;7.20;;
77016;SDS011;65949;53.132;17.930;2023-04-15T03:01:04;14.40;;;6.80;;
77016;SDS011;65949;53.132;17.930;2023-04-15T03:03:31;11.00;;;6.40;;
77016;SDS011;65949;53.132;17.930;2023-04-15T03:05:57;12.70;;;6.80;;
77016;SDS011;65949;53.132;17.930;2023-04-15T03:08:24;15.70;;;7.10;;
77016;SDS011;65949;53.132;17.930;2023-04-15T03:10:51;13.40;;;7.70;;
77016;SDS011;65949;53.132;17.930;2023-04-15T03:13:19;12.60;;;7.30;;
77016;SDS011;65949;53.132;17.930;2023-04-15T03:15:46;12.00;;;6.80;;
77016;SDS011;65949;53.132;17.930;2023-04-15T03:18:14;13.60;;;7.30;;
77016;SDS011;65949;53.132;17.930;2023-04-15T03:20:42;12.30;;;6.40;;
77016;SDS011;65949;53.132;17.930;2023-04-15T03:23:08;12.80;;;6.60;;
77016;SDS011;65949;53.132;17.930;2023-04-15T03:25:36;11.70;;;6.20;;
77016;SDS011;65949;53.132;17.930;2023-04-15T03:28:03;13.20;;;7.80;;
77016;SDS011;65949;53.132;17.930;2023-04-15T03:30:30;12.60;;;6.90;;
77016;SDS011;65949;53.132;17.930;2023-04-15T03:32:57;12.70;;;7.20;;
77016;SDS011;65949;53.132;17.930;2023-04-15T03:35:24;12.90;;;7.20;;
77016;SDS011;65949;53.132;17.930;2023-04-15T03:37:50;13.10;;;6.00;;
77016;SDS011;65949;53.132;17.930;2023-04-15T03:40:17;13.50;;;6.70;;
77016;SDS011;65949;53.132;17.930;2023-04-15T03:42:44;11.40;;;6.20;;
77016;SDS011;65949;53.132;17.930;2023-04-15T03:45:11;13.20;;;7.20;;
77016;SDS011;65949;53.132;17.930;2023-04-15T03:47:38;11.40;;;5.10;;
77016;SDS011;65949;53.132;17.930;2023-04-15T03:50:04;11.80;;;6.50;;
77016;SDS011;65949;53.132;17.930;2023-04-15T03:52:32;10.80;;;6.00;;
77016;SDS011;65949;53.132;17.930;2023-04-15T03:54:59;12.30;;;6.80;;
77016;SDS011;65949;53.132;17.930;2023-04-15T03:57:25;13.50;;;6.70;;
77016;SDS011;65949;53.132;17.930;2023-04-15T03:59:52;10.90;;;6.80;;
77016;SDS011;65949;53.132;17.930;2023-04-15T04:02:19;11.90;;;6.70;;
77016;SDS011;65949;53.132;17.930;2023-04-15T04:04:46;12.60;;;6.20;;
77016;SDS011;65949;53.132;17.930;2023-04-15T04:07:15;11.90;;;6.90;;
77016;SDS011;65949;53.132;17.930;2023-04-15T04:09:43;11.70;;;6.40;;
77016;SDS011;65949;53.132;17.930;2023-04-15T04:12:09;12.50;;;7.50;;
77016;SDS011;65949;53.132;17.930;2023-04-15T04:14:37;12.20;;;7.20;;
77016;SDS011;65949;53.132;17.930;2023-04-15T04:17:04;12.90;;;7.10;;
77016;SDS011;65949;53.132;17.930;2023-04-15T04:19:30;13.30;;;7.10;;
77016;SDS011;65949;53.132;17.930;2023-04-15T04:21:57;12.50;;;6.60;;
77016;SDS011;65949;53.132;17.930;2023-04-15T04:24:24;13.00;;;7.00;;
77016;SDS011;65949;53.132;17.930;2023-04-15T04:26:50;11.60;;;6.50;;
77016;SDS011;65949;53.132;17.930;2023-04-15T04:29:17;11.60;;;7.00;;
77016;SDS011;65949;53.132;17.930;2023-04-15T04:31:43;12.30;;;6.70;;
77016;SDS011;65949;53.132;17.930;2023-04-15T04:34:10;12.80;;;6.90;;
77016;SDS011;65949;53.132;17.930;2023-04-15T04:36:37;12.00;;;6.50;;
77016;SDS011;65949;53.132;17.930;2023-04-15T04:39:04;13.20;;;7.50;;
77016;SDS011;65949;53.132;17.930;2023-04-15T04:41:30;12.30;;;7.00;;
77016;SDS011;65949;53.132;17.930;2023-04-15T04:43:57;12.40;;;6.80;;
77016;SDS011;65949;53.132;17.930;2023-04-15T04:46:24;12.90;;;6.60;;
77016;SDS011;65949;53.132;17.930;2023-04-15T04:48:50;12.80;;;6.60;;
77016;SDS011;65949;53.132;17.930;2023-04-15T04:51:17;10.80;;;5.90;;
77016;SDS011;65949;53.132;17.930;2023-04-15T04:53:44;12.90;;;6.60;;
77016;SDS011;65949;53.132;17.930;2023-04-15T04:56:10;12.70;;;7.00;;
77016;SDS011;65949;53.132;17.930;2023-04-15T04:58:37;14.70;;;7.50;;
77016;SDS011;65949;53.132;17.930;2023-04-15T05:01:04;14.60;;;6.80;;
77016;SDS011;65949;53.132;17.930;2023-04-15T05:03:30;13.10;;;7.50;;
77016;SDS011;65949;53.132;17.930;2023-04-15T05:05:57;13.60;;;7.60;;
77016;SDS011;65949;53.132;17.930;2023-04-15T05:08:24;13.70;;;6.70;;
77016;SDS011;65949;53.132;17.930;2023-04-15T05:10:51;14.20;;;7.80;;
77016;SDS011;65949;53.132;17.930;2023-04-15T05:13:17;14.10;;;8.00;;
77016;SDS011;65949;53.132;17.930;2023-04-15T05:15:44;9.40;;;5.50;;
77016;SDS011;65949;53.132;17.930;2023-04-15T05:18:10;13.10;;;7.70;;
77016;SDS011;65949;53.132;17.930;2023-04-15T05:20:37;17.10;;;8.00;;
77016;SDS011;65949;53.132;17.930;2023-04-15T05:23:04;16.30;;;7.50;;
77016;SDS011;65949;53.132;17.930;2023-04-15T05:25:30;16.00;;;8.10;;
77016;SDS011;65949;53.132;17.930;2023-04-15T05:27:57;13.40;;;8.80;;
77016;SDS011;65949;53.132;17.930;2023-04-15T05:30:24;14.50;;;7.50;;
77016;SDS011;65949;53.132;17.930;2023-04-15T05:32:51;15.30;;;7.00;;
77016;SDS011;65949;53.132;17.930;2023-04-15T05:35:17;11.60;;;6.30;;
77016;SDS011;65949;53.132;17.930;2023-04-15T05:37:44;14.30;;;7.00;;
77016;SDS011;65949;53.132;17.930;2023-04-15T05:40:11;13.90;;;6.60;;
77016;SDS011;65949;53.132;17.930;2023-04-15T05:42:38;14.20;;;5.80;;
77016;SDS011;65949;53.132;17.930;2023-04-15T05:45:05;11.60;;;6.00;;
77016;SDS011;65949;53.132;17.930;2023-04-15T05:47:34;13.20;;;6.80;;
77016;SDS011;65949;53.132;17.930;2023-04-15T05:50:03;13.90;;;8.10;;
77016;SDS011;65949;53.132;17.930;2023-04-15T05:52:30;14.20;;;8.60;;
77016;SDS011;65949;53.132;17.930;2023-04-15T05:54:57;13.60;;;8.00;;
77016;SDS011;65949;53.132;17.930;2023-04-15T05:57:23;13.80;;;8.00;;
77016;SDS011;65949;53.132;17.930;2023-04-15T05:59:50;15.20;;;8.60;;
77016;SDS011;65949;53.132;17.930;2023-04-15T06:02:18;16.40;;;8.90;;
77016;SDS011;65949;53.132;17.930;2023-04-15T06:04:44;14.70;;;9.00;;
77016;SDS011;65949;53.132;17.930;2023-04-15T06:07:11;20.60;;;9.70;;
77016;SDS011;65949;53.132;17.930;2023-04-15T06:09:37;20.00;;;9.30;;
77016;SDS011;65949;53.132;17.930;2023-04-15T06:12:04;11.40;;;5.20;;
77016;SDS011;65949;53.132;17.930;2023-04-15T06:14:32;11.90;;;6.50;;
77016;SDS011;65949;53.132;17.930;2023-04-15T06:16:58;13.00;;;7.50;;
77016;SDS011;65949;53.132;17.930;2023-04-15T06:19:25;15.30;;;7.60;;
77016;SDS011;65949;53.132;17.930;2023-04-15T06:21:51;13.70;;;8.10;;
77016;SDS011;65949;53.132;17.930;2023-04-15T06:24:18;13.20;;;7.50;;
77016;SDS011;65949;53.132;17.930;2023-04-15T06:26:45;15.50;;;9.00;;
77016;SDS011;65949;53.132;17.930;2023-04-15T06:29:11;14.90;;;8.00;;
77016;SDS011;65949;53.132;17.930;2023-04-15T06:31:38;14.40;;;8.70;;
77016;SDS011;65949;53.132;17.930;2023-04-15T06:34:04;14.70;;;8.10;;
77016;SDS011;65949;53.132;17.930;2023-04-15T06:36:31;14.70;;;8.70;;
77016;SDS011;65949;53.132;17.930;2023-04-15T06:38:58;15.20;;;9.30;;
77016;SDS011;65949;53.132;17.930;2023-04-15T06:41:25;15.80;;;9.80;;
77016;SDS011;65949;53.132;17.930;2023-04-15T06:43:51;21.30;;;11.50;;
77016;SDS011;65949;53.132;17.930;2023-04-15T06:46:18;16.40;;;9.70;;
77016;SDS011;65949;53.132;17.930;2023-04-15T06:48:45;16.40;;;10.00;;
77016;SDS011;65949;53.132;17.930;2023-04-15T06:51:11;16.40;;;9.90;;
77016;SDS011;65949;53.132;17.930;2023-04-15T06:53:38;16.60;;;10.40;;
77016;SDS011;65949;53.132;17.930;2023-04-15T06:56:07;17.30;;;10.70;;
77016;SDS011;65949;53.132;17.930;2023-04-15T06:58:34;14.60;;;8.40;;
77016;SDS011;65949;53.132;17.930;2023-04-15T07:01:01;15.60;;;10.00;;
77016;SDS011;65949;53.132;17.930;2023-04-15T07:03:29;20.00;;;11.50;;
77016;SDS011;65949;53.132;17.930;2023-04-15T07:05:56;18.90;;;11.90;;
77016;SDS011;65949;53.132;17.930;2023-04-15T07:08:23;17.30;;;11.50;;
77016;SDS011;65949;53.132;17.930;2023-04-15T07:10:49;19.20;;;9.80;;
77016;SDS011;65949;53.132;17.930;2023-04-15T07:13:17;21.20;;;12.30;;
77016;SDS011;65949;53.132;17.930;2023-04-15T07:15:43;20.50;;;13.10;;
77016;SDS011;65949;53.132;17.930;2023-04-15T07:18:11;20.20;;;12.40;;
77016;SDS011;65949;53.132;17.930;2023-04-15T07:20:37;19.30;;;12.20;;
77016;SDS011;65949;53.132;17.930;2023-04-15T07:23:04;19.00;;;11.40;;
77016;SDS011;65949;53.132;17.930;2023-04-15T07:25:30;17.90;;;10.90;;
77016;SDS011;65949;53.132;17.930;2023-04-15T07:27:57;18.40;;;11.30;;
77016;SDS011;65949;53.132;17.930;2023-04-15T07:30:24;18.90;;;11.50;;
77016;SDS011;65949;53.132;17.930;2023-04-15T07:32:51;19.60;;;11.00;;
77016;SDS011;65949;53.132;17.930;2023-04-15T07:35:17;17.00;;;10.30;;
77016;SDS011;65949;53.132;17.930;2023-04-15T07:37:47;17.40;;;9.90;;
77016;SDS011;65949;53.132;17.930;2023-04-15T07:40:13;18.10;;;10.30;;
77016;SDS011;65949;53.132;17.930;2023-04-15T07:42:41;19.20;;;11.50;;
77016;SDS011;65949;53.132;17.930;2023-04-15T07:45:08;16.10;;;9.00;;
77016;SDS011;65949;53.132;17.930;2023-04-15T07:47:36;19.90;;;10.60;;
77016;SDS011;65949;53.132;17.930;2023-04-15T07:50:02;17.50;;;10.30;;
77016;SDS011;65949;53.132;17.930;2023-04-15T07:52:29;15.70;;;10.50;;
77016;SDS011;65949;53.132;17.930;2023-04-15T07:54:56;16.80;;;10.90;;
77016;SDS011;65949;53.132;17.930;2023-04-15T07:57:22;18.10;;;10.60;;
77016;SDS011;65949;53.132;17.930;2023-04-15T07:59:49;18.50;;;10.60;;
77016;SDS011;65949;53.132;17.930;2023-04-15T08:02:15;18.90;;;11.60;;
77016;SDS011;65949;53.132;17.930;2023-04-15T08:04:42;18.10;;;11.20;;
77016;SDS011;65949;53.132;17.930;2023-04-15T08:07:09;18.70;;;11.70;;
77016;SDS011;65949;53.132;17.930;2023-04-15T08:09:37;21.30;;;12.50;;
77016;SDS011;65949;53.132;17.930;2023-04-15T08:12:08;18.40;;;11.40;;
77016;SDS011;65949;53.132;17.930;2023-04-15T08:14:38;19.00;;;11.50;;
77016;SDS011;65949;53.132;17.930;2023-04-15T08:17:05;16.50;;;10.30;;
77016;SDS011;65949;53.132;17.930;2023-04-15T08:19:32;21.00;;;13.10;;
77016;SDS011;65949;53.132;17.930;2023-04-15T08:21:59;19.20;;;12.00;;
77016;SDS011;65949;53.132;17.930;2023-04-15T08:24:26;19.80;;;12.50;;
77016;SDS011;65949;53.132;17.930;2023-04-15T08:26:52;18.70;;;11.90;;
77016;SDS011;65949;53.132;17.930;2023-04-15T08:29:19;15.90;;;9.80;;
77016;SDS011;65949;53.132;17.930;2023-04-15T08:31:46;19.30;;;11.50;;
77016;SDS011;65949;53.132;17.930;2023-04-15T08:34:13;18.90;;;11.20;;
77016;SDS011;65949;53.132;17.930;2023-04-15T08:36:41;19.00;;;10.80;;
77016;SDS011;65949;53.132;17.930;2023-04-15T08:39:08;15.20;;;9.10;;
77016;SDS011;65949;53.132;17.930;2023-04-15T08:41:45;18.60;;;11.80;;
77016;SDS011;65949;53.132;17.930;2023-04-15T08:44:13;23.80;;;15.30;;
77016;SDS011;65949;53.132;17.930;2023-04-15T08:46:40;25.00;;;15.10;;
77016;SDS011;65949;53.132;17.930;2023-04-15T08:49:09;29.30;;;19.30;;
77016;SDS011;65949;53.132;17.930;2023-04-15T08:51:41;26.60;;;17.60;;
77016;SDS011;65949;53.132;17.930;2023-04-15T08:54:08;18.70;;;11.80;;
77016;SDS011;65949;53.132;17.930;2023-04-15T08:56:35;18.20;;;11.60;;
77016;SDS011;65949;53.132;17.930;2023-04-15T08:59:04;18.80;;;11.50;;
77016;SDS011;65949;53.132;17.930;2023-04-15T09:01:32;19.30;;;12.00;;
77016;SDS011;65949;53.132;17.930;2023-04-15T09:03:59;17.30;;;11.70;;
77016;SDS011;65949;53.132;17.930;2023-04-15T09:06:28;18.90;;;12.10;;
77016;SDS011;65949;53.132;17.930;2023-04-15T09:08:55;19.70;;;11.70;;
77016;SDS011;65949;53.132;17.930;2023-04-15T09:11:21;16.70;;;10.60;;
77016;SDS011;65949;53.132;17.930;2023-04-15T09:13:48;18.10;;;10.70;;
77016;SDS011;65949;53.132;17.930;2023-04-15T09:16:15;17.30;;;10.60;;
77016;SDS011;65949;53.132;17.930;2023-04-15T09:18:41;19.20;;;11.80;;
77016;SDS011;65949;53.132;17.930;2023-04-15T09:21:09;18.80;;;11.20;;
77016;SDS011;65949;53.132;17.930;2023-04-15T09:23:38;19.70;;;10.80;;
77016;SDS011;65949;53.132;17.930;2023-04-15T09:26:07;16.30;;;9.70;;
77016;SDS011;65949;53.132;17.930;2023-04-15T09:28:40;18.60;;;10.30;;
77016;SDS011;65949;53.132;17.930;2023-04-15T09:31:07;20.10;;;10.50;;
77016;SDS011;65949;53.132;17.930;2023-04-15T09:33:33;20.20;;;12.10;;
77016;SDS011;65949;53.132;17.930;2023-04-15T09:36:01;19.50;;;11.50;;
77016;SDS011;65949;53.132;17.930;2023-04-15T09:38:30;21.60;;;12.80;;
77016;SDS011;65949;53.132;17.930;2023-04-15T09:40:57;18.20;;;10.10;;
77016;SDS011;65949;53.132;17.930;2023-04-15T09:43:37;16.70;;;9.90;;
77016;SDS011;65949;53.132;17.930;2023-04-15T09:46:05;16.90;;;11.10;;
77016;SDS011;65949;53.132;17.930;2023-04-15T09:48:32;19.30;;;11.20;;
77016;SDS011;65949;53.132;17.930;2023-04-15T09:50:59;20.40;;;12.30;;
77016;SDS011;65949;53.132;17.930;2023-04-15T09:53:27;19.70;;;11.40;;
77016;SDS011;65949;53.132;17.930;2023-04-15T09:55:55;17.10;;;11.30;;
77016;SDS011;65949;53.132;17.930;2023-04-15T09:58:24;20.60;;;12.00;;
77016;SDS011;65949;53.132;17.930;2023-04-15T10:00:53;22.10;;;13.60;;
77016;SDS011;65949;53.132;17.930;2023-04-15T10:03:25;22.80;;;13.60;;
77016;SDS011;65949;53.132;17.930;2023-04-15T10:05:54;24.30;;;14.20;;
77016;SDS011;65949;53.132;17.930;2023-04-15T10:08:22;17.00;;;10.10;;
77016;SDS011;65949;53.132;17.930;2023-04-15T10:10:51;19.80;;;12.20;;
77016;SDS011;65949;53.132;17.930;2023-04-15T10:13:20;17.80;;;10.60;;
77016;SDS011;65949;53.132;17.930;2023-04-15T10:15:59;21.00;;;11.70;;
77016;SDS011;65949;53.132;17.930;2023-04-15T10:18:29;21.20;;;10.70;;
77016;SDS011;65949;53.132;17.930;2023-04-15T10:21:00;15.10;;;8.80;;
77016;SDS011;65949;53.132;17.930;2023-04-15T10:23:27;18.50;;;10.50;;
77016;SDS011;65949;53.132;17.930;2023-04-15T10:25:54;22.20;;;12.90;;
77016;SDS011;65949;53.132;17.930;2023-04-15T10:28:22;17.60;;;10.50;;
77016;SDS011;65949;53.132;17.930;2023-04-15T10:30:50;12.00;;;6.70;;
77016;SDS011;65949;53.132;17.930;2023-04-15T10:33:19;20.80;;;11.90;;
77016;SDS011;65949;53.132;17.930;2023-04-15T10:35:49;20.20;;;11.60;;
77016;SDS011;65949;53.132;17.930;2023-04-15T10:41:20;17.80;;;10.00;;
77016;SDS011;65949;53.132;17.930;2023-04-15T10:43:51;25.00;;;12.00;;
77016;SDS011;65949;53.132;17.930;2023-04-15T10:46:36;38.70;;;17.00;;
77016;SDS011;65949;53.132;17.930;2023-04-15T10:49:09;22.70;;;12.30;;
77016;SDS011;65949;53.132;17.930;2023-04-15T10:52:01;20.70;;;11.40;;
77016;SDS011;65949;53.132;17.930;2023-04-15T10:57:06;21.30;;;11.00;;
77016;SDS011;65949;53.132;17.930;2023-04-15T10:59:35;21.10;;;11.00;;
77016;SDS011;65949;53.132;17.930;2023-04-15T11:02:03;17.20;;;9.60;;
77016;SDS011;65949;53.132;17.930;2023-04-15T11:12:39;17.80;;;9.40;;
77016;SDS011;65949;53.132;17.930;2023-04-15T11:17:56;13.60;;;7.70;;
77016;SDS011;65949;53.132;17.930;2023-04-15T11:20:24;16.00;;;8.60;;
77016;SDS011;65949;53.132;17.930;2023-04-15T11:22:52;17.20;;;9.60;;
77016;SDS011;65949;53.132;17.930;2023-04-15T11:25:26;19.20;;;9.90;;
77016;SDS011;65949;53.132;17.930;2023-04-15T11:27:54;18.90;;;9.30;;
77016;SDS011;65949;53.132;17.930;2023-04-15T11:30:23;20.30;;;9.70;;
77016;SDS011;65949;53.132;17.930;2023-04-15T11:32:52;25.80;;;12.60;;
77016;SDS011;65949;53.132;17.930;2023-04-15T11:35:21;20.90;;;10.20;;
77016;SDS011;65949;53.132;17.930;2023-04-15T11:37:47;23.60;;;11.50;;
77016;SDS011;65949;53.132;17.930;2023-04-15T11:40:16;20.60;;;10.50;;
77016;SDS011;65949;53.132;17.930;2023-04-15T11:43:02;22.30;;;10.80;;
77016;SDS011;65949;53.132;17.930;2023-04-15T11:45:33;18.90;;;9.10;;
77016;SDS011;65949;53.132;17.930;2023-04-15T11:48:05;17.60;;;9.40;;
77016;SDS011;65949;53.132;17.930;2023-04-15T11:50:34;16.90;;;8.40;;
77016;SDS011;65949;53.132;17.930;2023-04-15T11:53:02;20.50;;;9.90;;
77016;SDS011;65949;53.132;17.930;2023-04-15T11:55:30;17.90;;;9.20;;
77016;SDS011;65949;53.132;17.930;2023-04-15T12:00:46;16.90;;;8.30;;
77016;SDS011;65949;53.132;17.930;2023-04-15T12:06:20;17.20;;;8.90;;
77016;SDS011;65949;53.132;17.930;2023-04-15T12:08:54;15.70;;;8.50;;
77016;SDS011;65949;53.132;17.930;2023-04-15T12:16:49;16.80;;;8.80;;
77016;SDS011;65949;53.132;17.930;2023-04-15T12:19:26;15.40;;;8.20;;
77016;SDS011;65949;53.132;17.930;2023-04-15T12:22:00;15.40;;;8.30;;
77016;SDS011;65949;53.132;17.930;2023-04-15T12:24:33;14.80;;;7.40;;
77016;SDS011;65949;53.132;17.930;2023-04-15T12:27:07;14.50;;;7.40;;
77016;SDS011;65949;53.132;17.930;2023-04-15T12:29:37;15.40;;;8.50;;
77016;SDS011;65949;53.132;17.930;2023-04-15T12:32:06;14.70;;;8.60;;
77016;SDS011;65949;53.132;17.930;2023-04-15T12:34:35;37.70;;;22.60;;
77016;SDS011;65949;53.132;17.930;2023-04-15T12:37:04;120.40;;;56.70;;
77016;SDS011;65949;53.132;17.930;2023-04-15T12:39:36;50.70;;;22.00;;
77016;SDS011;65949;53.132;17.930;2023-04-15T12:42:04;17.50;;;9.90;;
77016;SDS011;65949;53.132;17.930;2023-04-15T12:44:31;20.30;;;11.60;;
77016;SDS011;65949;53.132;17.930;2023-04-15T12:46:58;18.00;;;9.60;;
77016;SDS011;65949;53.132;17.930;2023-04-15T12:49:25;12.30;;;6.90;;
77016;SDS011;65949;53.132;17.930;2023-04-15T12:51:53;18.70;;;12.60;;
77016;SDS011;65949;53.132;17.930;2023-04-15T12:54:22;18.20;;;10.80;;
77016;SDS011;65949;53.132;17.930;2023-04-15T12:56:49;17.90;;;10.60;;
77016;SDS011;65949;53.132;17.930;2023-04-15T12:59:16;16.40;;;9.50;;
77016;SDS011;65949;53.132;17.930;2023-04-15T13:01:44;17.80;;;11.80;;
77016;SDS011;65949;53.132;17.930;2023-04-15T13:04:14;17.00;;;11.00;;
77016;SDS011;65949;53.132;17.930;2023-04-15T13:06:41;17.50;;;10.50;;
77016;SDS011;65949;53.132;17.930;2023-04-15T13:09:08;15.50;;;10.20;;
77016;SDS011;65949;53.132;17.930;2023-04-15T13:11:35;17.30;;;11.40;;
77016;SDS011;65949;53.132;17.930;2023-04-15T13:14:03;16.60;;;10.40;;
77016;SDS011;65949;53.132;17.930;2023-04-15T13:16:31;15.90;;;9.60;;
77016;SDS011;65949;53.132;17.930;2023-04-15T13:18:59;19.10;;;12.10;;
77016;SDS011;65949;53.132;17.930;2023-04-15T13:21:27;16.00;;;10.00;;
77016;SDS011;65949;53.132;17.930;2023-04-15T13:23:54;13.10;;;7.60;;
77016;SDS011;65949;53.132;17.930;2023-04-15T13:26:21;15.10;;;9.30;;
77016;SDS011;65949;53.132;17.930;2023-04-15T13:28:47;16.60;;;10.60;;
77016;SDS011;65949;53.132;17.930;2023-04-15T13:31:14;16.50;;;9.40;;
77016;SDS011;65949;53.132;17.930;2023-04-15T13:33:41;15.40;;;9.70;;
77016;SDS011;65949;53.132;17.930;2023-04-15T13:36:07;14.60;;;8.60;;
77016;SDS011;65949;53.132;17.930;2023-04-15T13:38:34;18.70;;;10.50;;
77016;SDS011;65949;53.132;17.930;2023-04-15T13:41:01;16.00;;;9.50;;
77016;SDS011;65949;53.132;17.930;2023-04-15T13:43:28;16.20;;;10.00;;
77016;SDS011;65949;53.132;17.930;2023-04-15T13:45:54;15.80;;;10.30;;
77016;SDS011;65949;53.132;17.930;2023-04-15T13:48:21;18.40;;;9.70;;
77016;SDS011;65949;53.132;17.930;2023-04-15T13:50:47;18.60;;;9.60;;
77016;SDS011;65949;53.132;17.930;2023-04-15T13:53:14;17.00;;;9.30;;
77016;SDS011;65949;53.132;17.930;2023-04-15T13:55:41;18.30;;;10.10;;
77016;SDS011;65949;53.132;17.930;2023-04-15T13:58:08;17.00;;;9.40;;
77016;SDS011;65949;53.132;17.930;2023-04-15T14:00:35;17.60;;;9.90;;
77016;SDS011;65949;53.132;17.930;2023-04-15T14:03:02;21.20;;;10.80;;
77016;SDS011;65949;53.132;17.930;2023-04-15T14:05:28;22.50;;;11.40;;
77016;SDS011;65949;53.132;17.930;2023-04-15T14:07:55;17.90;;;9.60;;
77016;SDS011;65949;53.132;17.930;2023-04-15T14:10:22;15.00;;;8.50;;
77016;SDS011;65949;53.132;17.930;2023-04-15T14:12:48;16.00;;;9.00;;
77016;SDS011;65949;53.132;17.930;2023-04-15T14:15:15;14.20;;;8.10;;
77016;SDS011;65949;53.132;17.930;2023-04-15T14:17:41;15.00;;;8.70;;
77016;SDS011;65949;53.132;17.930;2023-04-15T14:20:08;16.60;;;9.30;;
77016;SDS011;65949;53.132;17.930;2023-04-15T14:22:35;14.60;;;8.90;;
77016;SDS011;65949;53.132;17.930;2023-04-15T14:25:02;13.50;;;7.90;;
77016;SDS011;65949;53.132;17.930;2023-04-15T14:27:29;14.80;;;8.60;;
77016;SDS011;65949;53.132;17.930;2023-04-15T14:29:56;15.00;;;7.80;;
77016;SDS011;65949;53.132;17.930;2023-04-15T14:32:24;14.50;;;8.20;;
77016;SDS011;65949;53.132;17.930;2023-04-15T14:34:51;17.80;;;9.10;;
77016;SDS011;65949;53.132;17.930;2023-04-15T14:37:18;16.80;;;9.20;;
77016;SDS011;65949;53.132;17.930;2023-04-15T14:39:45;16.00;;;9.20;;
77016;SDS011;65949;53.132;17.930;2023-04-15T14:42:11;14.60;;;7.70;;
77016;SDS011;65949;53.132;17.930;2023-04-15T14:44:38;11.70;;;6.60;;
77016;SDS011;65949;53.132;17.930;2023-04-15T14:47:04;13.60;;;7.70;;
77016;SDS011;65949;53.132;17.930;2023-04-15T14:49:31;13.70;;;7.60;;
77016;SDS011;65949;53.132;17.930;2023-04-15T14:51:58;12.80;;;7.10;;
77016;SDS011;65949;53.132;17.930;2023-04-15T14:54:24;14.50;;;7.70;;
77016;SDS011;65949;53.132;17.930;2023-04-15T14:56:51;14.70;;;7.70;;